createdAt,value
2023-05-02T00:00:06.188Z,101980.47
2023-05-02T00:02:33.807Z,101980.13
2023-05-02T00:05:00.773Z,101981.88
2023-05-02T00:07:27.876Z,101981.88
2023-05-02T00:09:55.339Z,101982.16
2023-05-02T00:12:22.144Z,101987.78
2023-05-02T00:14:49.085Z,101987.59
2023-05-02T00:17:17.992Z,101989.28
2023-05-02T00:19:45.029Z,101991.56
2023-05-02T00:22:11.829Z,101993.59
2023-05-02T00:24:38.717Z,101994.44
2023-05-02T00:27:06.505Z,101989.38
2023-05-02T00:29:33.301Z,101990.53
2023-05-02T00:32:00.158Z,101982.66
2023-05-02T00:34:31.178Z,101995.03
2023-05-02T00:36:58.134Z,102002.69
2023-05-02T00:39:24.961Z,101994.22
2023-05-02T00:42:01.842Z,101988.03
2023-05-02T00:44:29.119Z,101994.56
2023-05-02T00:46:57.008Z,101997.38
2023-05-02T00:49:24.021Z,101996.00
2023-05-02T00:51:50.832Z,101997.97
2023-05-02T00:54:17.939Z,101997.97
2023-05-02T00:56:44.915Z,102000.22
2023-05-02T00:59:12.434Z,101994.88
2023-05-02T01:01:42.675Z,101998.00
2023-05-02T01:04:13.613Z,102012.94
2023-05-02T01:06:54.601Z,102008.69
2023-05-02T01:09:31.622Z,102017.72
2023-05-02T01:11:59.577Z,102011.00
2023-05-02T01:14:29.982Z,102020.28
2023-05-02T01:16:57.060Z,102022.25
2023-05-02T01:19:29.664Z,102017.19
2023-05-02T01:21:57.103Z,102028.44
2023-05-02T01:24:27.921Z,102023.13
2023-05-02T01:27:04.401Z,102016.34
2023-05-02T01:29:32.707Z,102023.13
2023-05-02T01:32:01.730Z,102023.13
2023-05-02T01:34:30.109Z,102034.66
2023-05-02T01:37:00.735Z,102032.97
2023-05-02T01:39:27.877Z,102034.66
2023-05-02T01:41:57.104Z,102033.56
2023-05-02T01:44:24.746Z,102036.91
2023-05-02T01:46:53.381Z,102039.47
2023-05-02T01:49:22.214Z,102037.78
2023-05-02T01:51:50.743Z,102041.16
2023-05-02T01:54:18.977Z,102044.81
2023-05-02T01:56:46.834Z,102047.06
2023-05-02T01:59:15.637Z,102054.69
2023-05-02T02:01:45.534Z,102054.69
2023-05-02T02:04:14.091Z,102057.81
2023-05-02T02:06:43.849Z,102071.31
2023-05-02T02:09:10.705Z,102074.44
2023-05-02T02:11:44.505Z,102062.31
2023-05-02T02:14:15.540Z,102067.97
2023-05-02T02:16:42.984Z,102071.03
2023-05-02T02:19:11.325Z,102063.44
2023-05-02T02:21:39.434Z,102061.22
2023-05-02T02:24:06.940Z,102066.84
2023-05-02T02:26:34.299Z,102078.09
2023-05-02T02:29:01.772Z,102074.72
2023-05-02T02:31:40.070Z,102071.38
2023-05-02T02:34:07.047Z,102084.28
2023-05-02T02:36:36.661Z,102087.94
2023-05-02T02:39:04.016Z,102099.19
2023-05-02T02:41:39.432Z,102097.50
2023-05-02T02:44:19.434Z,102105.97
2023-05-02T02:46:49.281Z,102094.69
2023-05-02T02:49:27.639Z,102106.53
2023-05-02T02:51:59.254Z,102107.38
2023-05-02T02:54:35.343Z,102104.84
2023-05-02T02:57:04.820Z,102104.56
2023-05-02T02:59:34.461Z,102112.44
2023-05-02T03:02:07.480Z,102113.59
2023-05-02T03:04:42.606Z,102120.88
2023-05-02T03:07:09.712Z,102113.59
2023-05-02T03:09:46.626Z,102116.41
2023-05-02T03:12:14.021Z,102122.03
2023-05-02T03:14:41.565Z,102118.66
2023-05-02T03:17:08.894Z,102121.75
2023-05-02T03:19:36.254Z,102133.56
2023-05-02T03:22:03.307Z,102133.00
2023-05-02T03:24:30.251Z,102137.50
2023-05-02T03:26:57.682Z,102142.28
2023-05-02T03:29:24.931Z,102138.63
2023-05-02T03:31:52.124Z,102137.81
2023-05-02T03:34:20.076Z,102147.66
2023-05-02T03:36:46.847Z,102152.44
2023-05-02T03:39:13.700Z,102153.00
2023-05-02T03:41:40.470Z,102152.44
2023-05-02T03:44:07.521Z,102145.41
2023-05-02T03:46:34.326Z,102152.75
2023-05-02T03:49:01.173Z,102150.19
2023-05-02T03:51:28.017Z,102153.28
2023-05-02T03:53:55.136Z,102151.88
2023-05-02T03:56:22.025Z,102151.03
2023-05-02T03:58:49.573Z,102148.50
2023-05-02T04:01:17.178Z,102155.25
2023-05-02T04:03:44.056Z,102156.09
2023-05-02T04:06:11.376Z,102155.25
2023-05-02T04:08:38.149Z,102172.44
2023-05-02T04:11:04.999Z,102182.00
2023-05-02T04:13:32.315Z,102170.75
2023-05-02T04:15:59.136Z,102171.59
2023-05-02T04:18:26.012Z,102179.19
2023-05-02T04:20:52.830Z,102175.53
2023-05-02T04:23:19.698Z,102176.38
2023-05-02T04:25:56.840Z,102164.56
2023-05-02T04:28:24.304Z,102171.03
2023-05-02T04:30:51.960Z,102172.13
2023-05-02T04:33:19.035Z,102176.38
2023-05-02T04:35:45.929Z,102184.81
2023-05-02T04:38:14.550Z,102181.16
2023-05-02T04:40:41.514Z,102185.09
2023-05-02T04:43:08.348Z,102196.91
2023-05-02T04:45:40.008Z,102195.50
2023-05-02T04:48:06.903Z,102198.31
2023-05-02T04:50:33.966Z,102203.38
2023-05-02T04:53:00.781Z,102209.84
2023-05-02T04:55:29.184Z,102220.25
2023-05-02T04:57:56.065Z,102227.56
2023-05-02T05:00:23.103Z,102223.34
2023-05-02T05:02:50.108Z,102219.16
2023-05-02T05:05:16.991Z,102230.66
2023-05-02T05:07:43.926Z,102233.75
2023-05-02T05:10:13.351Z,102237.41
2023-05-02T05:12:40.239Z,102235.72
2023-05-02T05:15:07.584Z,102245.56
2023-05-02T05:17:34.861Z,102242.50
2023-05-02T05:20:02.038Z,102244.16
2023-05-02T05:22:28.980Z,102244.72
2023-05-02T05:24:55.865Z,102246.97
2023-05-02T05:27:22.820Z,102252.59
2023-05-02T05:29:49.615Z,102253.16
2023-05-02T05:32:16.513Z,102268.06
2023-05-02T05:34:43.352Z,102263.56
2023-05-02T05:37:10.163Z,102260.22
2023-05-02T05:39:37.043Z,102259.91
2023-05-02T05:42:04.042Z,102263.88
2023-05-02T05:44:31.988Z,102266.09
2023-05-02T05:46:59.022Z,102276.50
2023-05-02T05:49:25.938Z,102278.78
2023-05-02T05:51:52.814Z,102281.59
2023-05-02T05:54:19.673Z,102284.41
2023-05-02T05:56:48.889Z,102283.53
2023-05-02T05:59:16.007Z,102299.25
2023-05-02T06:01:43.050Z,102305.19
2023-05-02T06:04:10.166Z,102299.56
2023-05-02T06:06:37.229Z,102307.16
2023-05-02T06:09:04.656Z,102313.91
2023-05-02T06:11:31.461Z,102309.13
2023-05-02T06:13:58.306Z,102302.38
2023-05-02T06:16:25.399Z,102303.50
2023-05-02T06:18:53.396Z,102307.16
2023-05-02T06:21:20.436Z,102307.44
2023-05-02T06:23:47.310Z,102316.16
2023-05-02T06:26:14.526Z,102316.16
2023-05-02T06:28:41.538Z,102313.06
2023-05-02T06:31:08.602Z,102319.25
2023-05-02T06:33:35.833Z,102327.41
2023-05-02T06:36:05.148Z,102324.59
2023-05-02T06:38:32.157Z,102320.63
2023-05-02T06:40:59.274Z,102321.78
2023-05-02T06:43:26.230Z,102311.66
2023-05-02T06:45:54.599Z,102311.66
2023-05-02T06:48:22.039Z,102313.63
2023-05-02T06:50:49.537Z,102322.31
2023-05-02T06:53:16.803Z,102326.56
2023-05-02T06:55:44.898Z,102322.91
2023-05-02T06:58:11.968Z,102330.47
2023-05-02T07:00:38.915Z,102329.63
2023-05-02T07:03:05.988Z,102327.09
2023-05-02T07:05:33.443Z,102325.44
2023-05-02T07:08:00.765Z,102334.69
2023-05-02T07:10:29.964Z,102346.50
2023-05-02T07:12:56.975Z,102344.25
2023-05-02T07:15:25.669Z,102345.94
2023-05-02T07:17:52.860Z,102349.59
2023-05-02T07:20:20.330Z,102352.41
2023-05-02T07:22:47.330Z,102337.78
2023-05-02T07:25:14.204Z,102353.81
2023-05-02T07:27:41.224Z,102340.88
2023-05-02T07:30:08.806Z,102344.53
2023-05-02T07:32:35.754Z,102348.47
2023-05-02T07:35:02.696Z,102356.34
2023-05-02T07:37:34.260Z,102352.38
2023-05-02T07:40:02.160Z,102349.88
2023-05-02T07:42:31.274Z,102356.63
2023-05-02T07:44:58.761Z,102361.13
2023-05-02T07:47:27.076Z,102359.44
2023-05-02T07:49:54.906Z,102363.94
2023-05-02T07:52:22.140Z,102358.84
2023-05-02T07:54:50.829Z,102358.84
2023-05-02T07:57:18.077Z,102357.19
2023-05-02T07:59:45.315Z,102356.34
2023-05-02T08:02:14.303Z,102355.50
2023-05-02T08:04:41.666Z,102363.09
2023-05-02T08:07:08.800Z,102359.16
2023-05-02T08:09:36.451Z,102364.19
2023-05-02T08:12:03.704Z,102362.81
2023-05-02T08:14:31.082Z,102365.03
2023-05-02T08:16:58.227Z,102364.19
2023-05-02T08:19:25.697Z,102364.19
2023-05-02T08:21:54.323Z,102362.81
2023-05-02T08:24:21.772Z,102370.09
2023-05-02T08:26:48.653Z,102375.72
2023-05-02T08:29:15.584Z,102367.28
2023-05-02T08:31:46.324Z,102372.09
2023-05-02T08:34:13.281Z,102375.44
2023-05-02T08:36:40.309Z,102373.47
2023-05-02T08:39:08.950Z,102372.91
2023-05-02T08:41:35.900Z,102370.66
2023-05-02T08:44:04.745Z,102379.09
2023-05-02T08:46:34.762Z,102386.94
2023-05-02T08:49:03.027Z,102391.19
2023-05-02T08:51:30.685Z,102391.44
2023-05-02T08:53:57.825Z,102403.81
2023-05-02T08:56:25.604Z,102404.38
2023-05-02T08:58:52.682Z,102401.81
2023-05-02T09:01:23.344Z,102416.75
2023-05-02T09:03:55.051Z,102417.59
2023-05-02T09:06:23.117Z,102431.41
2023-05-02T09:08:51.278Z,102433.09
2023-05-02T09:11:18.818Z,102430.88
2023-05-02T09:13:47.469Z,102432.56
2023-05-02T09:16:16.618Z,102429.75
2023-05-02T09:18:44.020Z,102438.19
2023-05-02T09:21:12.706Z,102443.56
2023-05-02T09:23:41.479Z,102443.56
2023-05-02T09:26:13.214Z,102442.75
2023-05-02T09:28:41.664Z,102447.22
2023-05-02T09:31:10.126Z,102450.03
2023-05-02T09:33:37.787Z,102450.63
2023-05-02T09:36:05.374Z,102449.50
2023-05-02T09:38:32.849Z,102450.38
2023-05-02T09:41:00.582Z,102452.31
2023-05-02T09:43:27.583Z,102461.34
2023-05-02T09:45:58.200Z,102463.31
2023-05-02T09:48:25.945Z,102471.47
2023-05-02T09:50:53.425Z,102466.66
2023-05-02T09:53:20.671Z,102465.56
2023-05-02T09:55:47.876Z,102464.69
2023-05-02T09:58:26.212Z,102463.84
2023-05-02T10:00:53.483Z,102460.19
2023-05-02T10:03:20.689Z,102463.78
2023-05-02T10:05:48.038Z,102464.09
2023-05-02T10:08:16.940Z,102462.38
2023-05-02T10:10:47.361Z,102459.00
2023-05-02T10:13:14.890Z,102449.94
2023-05-02T10:15:43.770Z,102457.88
2023-05-02T10:18:16.162Z,102460.13
2023-05-02T10:20:47.358Z,102473.94
2023-05-02T10:23:16.277Z,102466.03
2023-05-02T10:25:43.486Z,102465.47
2023-05-02T10:28:11.266Z,102470.78
2023-05-02T10:30:39.160Z,102471.38
2023-05-02T10:33:06.561Z,102472.22
2023-05-02T10:35:37.843Z,102471.91
2023-05-02T10:38:06.863Z,102474.44
2023-05-02T10:40:34.341Z,102485.44
2023-05-02T10:43:01.710Z,102478.13
2023-05-02T10:48:07.667Z,102480.38
2023-05-02T10:50:45.707Z,102480.66
2023-05-02T10:53:22.533Z,102485.47
2023-05-02T10:56:00.167Z,102483.75
2023-05-02T10:58:27.443Z,102492.22
2023-05-02T11:00:54.684Z,102503.50
2023-05-02T11:03:41.881Z,102500.69
2023-05-02T11:06:10.297Z,102501.25
2023-05-02T11:08:37.782Z,102508.88
2023-05-02T11:11:14.442Z,102509.41
2023-05-02T11:13:49.244Z,102508.88
2023-05-02T11:16:16.675Z,102511.41
2023-05-02T11:18:58.734Z,102503.81
2023-05-02T11:21:29.545Z,102506.03
2023-05-02T11:24:16.713Z,102502.94
2023-05-02T11:26:44.100Z,102499.03
2023-05-02T11:29:11.278Z,102494.50
2023-05-02T11:31:39.769Z,102493.06
2023-05-02T11:34:06.712Z,102493.06
2023-05-02T11:36:34.458Z,102485.75
2023-05-02T11:39:02.270Z,102485.47
2023-05-02T11:41:38.458Z,102488.28
2023-05-02T11:44:06.093Z,102479.59
2023-05-02T11:46:33.817Z,102487.19
2023-05-02T11:49:01.640Z,102482.09
2023-05-02T11:51:29.372Z,102495.38
2023-05-02T11:53:57.208Z,102502.66
2023-05-02T11:56:27.286Z,102501.00
2023-05-02T11:59:02.567Z,102496.72
2023-05-02T12:01:31.134Z,102496.72
2023-05-02T12:04:08.342Z,102510.81
2023-05-02T12:06:36.383Z,102509.72
2023-05-02T12:09:14.976Z,102521.25
2023-05-02T12:11:45.536Z,102517.03
2023-05-02T12:14:13.156Z,102505.19
2023-05-02T12:16:42.307Z,102515.34
2023-05-02T12:19:09.408Z,102509.97
2023-05-02T12:21:37.130Z,102520.41
2023-05-02T12:24:07.623Z,102516.19
2023-05-02T12:26:34.878Z,102508.00
2023-05-02T12:29:03.550Z,102514.22
2023-05-02T12:31:32.907Z,102519.00
2023-05-02T12:34:01.423Z,102522.94
2023-05-02T12:36:30.170Z,102521.25
2023-05-02T12:39:00.124Z,102518.16
2023-05-02T12:41:36.835Z,102523.53
2023-05-02T12:44:04.852Z,102520.72
2023-05-02T12:46:35.240Z,102528.31
2023-05-02T12:49:06.911Z,102529.16
2023-05-02T12:51:35.041Z,102524.97
2023-05-02T12:54:02.342Z,102531.41
2023-05-02T12:56:33.155Z,102528.63
2023-05-02T12:59:01.977Z,102529.44
2023-05-02T13:01:29.180Z,102524.38
2023-05-02T13:03:56.556Z,102529.44
2023-05-02T13:06:24.114Z,102533.41
2023-05-02T13:08:51.625Z,102528.31
2023-05-02T13:11:18.888Z,102539.59
2023-05-02T13:13:52.151Z,102531.72
2023-05-02T13:16:19.388Z,102522.16
2023-05-02T13:18:48.084Z,102517.09
2023-05-02T13:21:15.578Z,102516.50
2023-05-02T13:23:45.066Z,102519.31
2023-05-02T13:26:12.492Z,102517.34
2023-05-02T13:28:39.772Z,102509.50
2023-05-02T13:31:07.109Z,102509.50
2023-05-02T13:33:34.379Z,102513.41
2023-05-02T13:36:01.938Z,102501.03
2023-05-02T13:38:29.296Z,102511.44
2023-05-02T13:40:56.647Z,102523.84
2023-05-02T13:43:24.754Z,102513.16
2023-05-02T13:45:52.780Z,102522.13
2023-05-02T13:48:20.360Z,102517.34
2023-05-02T13:50:47.835Z,102520.75
2023-05-02T13:53:15.123Z,102516.81
2023-05-02T13:55:42.564Z,102519.31
2023-05-02T13:58:09.844Z,102523.28
2023-05-02T14:00:37.833Z,102515.69
2023-05-02T14:03:05.896Z,102509.75
2023-05-02T14:05:33.237Z,102518.19
2023-05-02T14:08:00.571Z,102516.81
2023-05-02T14:10:27.747Z,102520.47
2023-05-02T14:12:54.706Z,102527.22
2023-05-02T14:15:22.322Z,102518.78
2023-05-02T14:17:50.223Z,102519.63
2023-05-02T14:20:17.376Z,102521.00
2023-05-02T14:22:44.254Z,102517.34
2023-05-02T14:25:14.612Z,102535.38
2023-05-02T14:27:42.840Z,102526.94
2023-05-02T14:30:10.339Z,102514.25
2023-05-02T14:32:37.707Z,102512.56
2023-05-02T14:35:05.045Z,102512.28
2023-05-02T14:37:32.174Z,102510.31
2023-05-02T14:39:59.793Z,102502.44
2023-05-02T14:42:27.147Z,102508.06
2023-05-02T14:44:54.482Z,102512.81
2023-05-02T14:47:21.529Z,102506.91
2023-05-02T14:49:48.816Z,102508.03
2023-05-02T14:52:16.275Z,102505.78
2023-05-02T14:54:43.432Z,102499.00
2023-05-02T14:57:11.804Z,102500.16
2023-05-02T14:59:39.480Z,102499.31
2023-05-02T15:02:07.238Z,102508.59
2023-05-02T15:04:34.444Z,102500.69
2023-05-02T15:07:02.069Z,102501.53
2023-05-02T15:09:29.930Z,102502.97
2023-05-02T15:11:57.443Z,102498.44
2023-05-02T15:14:24.567Z,102505.78
2023-05-02T15:16:52.068Z,102499.28
2023-05-02T15:19:19.205Z,102502.38
2023-05-02T15:21:46.369Z,102499.84
2023-05-02T15:24:13.444Z,102497.88
2023-05-02T15:26:41.525Z,102495.91
2023-05-02T15:29:08.642Z,102492.53
2023-05-02T15:31:36.188Z,102491.13
2023-05-02T15:34:03.950Z,102494.19
2023-05-02T15:36:32.358Z,102486.06
2023-05-02T15:38:59.709Z,102490.00
2023-05-02T15:41:28.197Z,102493.91
2023-05-02T15:43:55.574Z,102489.16
2023-05-02T15:46:22.839Z,102485.78
2023-05-02T15:48:50.135Z,102488.00
2023-05-02T15:51:17.701Z,102498.13
2023-05-02T15:53:45.449Z,102499.53
2023-05-02T15:56:12.904Z,102490.28
2023-05-02T15:58:40.428Z,102496.16
2023-05-02T16:01:08.052Z,102493.63
2023-05-02T16:03:35.769Z,102495.59
2023-05-02T16:06:06.155Z,102495.31
2023-05-02T16:08:33.450Z,102498.97
2023-05-02T16:11:02.378Z,102500.09
2023-05-02T16:13:29.717Z,102501.78
2023-05-02T16:15:57.179Z,102495.88
2023-05-02T16:18:28.818Z,102494.47
2023-05-02T16:20:58.992Z,102495.31
2023-05-02T16:23:26.790Z,102500.34
2023-05-02T16:25:57.645Z,102504.88
2023-05-02T16:28:25.081Z,102493.31
2023-05-02T16:30:52.815Z,102498.09
2023-05-02T16:33:23.045Z,102499.22
2023-05-02T16:36:10.054Z,102496.41
2023-05-02T16:38:37.229Z,102489.66
2023-05-02T16:41:05.577Z,102486.00
2023-05-02T16:43:33.492Z,102494.72
2023-05-02T16:46:02.018Z,102488.53
2023-05-02T16:48:29.725Z,102491.06
2023-05-02T16:50:57.614Z,102490.50
2023-05-02T16:53:25.401Z,102498.94
2023-05-02T16:55:57.458Z,102494.16
2023-05-02T16:58:25.612Z,102498.06
2023-05-02T17:00:53.039Z,102505.66
2023-05-02T17:03:20.356Z,102503.69
2023-05-02T17:05:48.119Z,102501.75
2023-05-02T17:08:17.359Z,102498.94
2023-05-02T17:10:48.976Z,102502.59
2023-05-02T17:13:16.959Z,102497.22
2023-05-02T17:15:49.349Z,102491.59
2023-05-02T17:18:17.288Z,102488.78
2023-05-02T17:20:46.705Z,102489.34
2023-05-02T17:23:15.147Z,102493.03
2023-05-02T17:25:42.744Z,102482.88
2023-05-02T17:28:10.029Z,102487.66
2023-05-02T17:30:37.651Z,102483.19
2023-05-02T17:33:07.554Z,102486.00
2023-05-02T17:35:37.355Z,102500.31
2023-05-02T17:38:04.409Z,102491.03
2023-05-02T17:40:31.664Z,102486.53
2023-05-02T17:43:00.175Z,102486.53
2023-05-02T17:45:33.285Z,102491.59
2023-05-02T17:48:04.430Z,102491.88
2023-05-02T17:50:32.238Z,102495.78
2023-05-02T17:52:59.718Z,102498.91
2023-05-02T17:55:29.153Z,102496.09
2023-05-02T17:57:59.189Z,102497.75
2023-05-02T18:00:27.434Z,102496.91
2023-05-02T18:02:57.934Z,102490.72
2023-05-02T18:05:29.074Z,102495.50
2023-05-02T18:07:56.564Z,102495.22
2023-05-02T18:10:23.780Z,102493.81
2023-05-02T18:12:50.951Z,102506.16
2023-05-02T18:15:18.291Z,102500.00
2023-05-02T18:17:45.465Z,102498.88
2023-05-02T18:20:13.122Z,102501.97
2023-05-02T18:22:40.641Z,102500.56
2023-05-02T18:25:08.612Z,102500.56
2023-05-02T18:27:35.797Z,102499.72
2023-05-02T18:30:03.049Z,102504.19
2023-05-02T18:32:31.920Z,102505.00
2023-05-02T18:34:59.349Z,102503.03
2023-05-02T18:37:31.821Z,102501.66
2023-05-02T18:39:59.031Z,102504.47
2023-05-02T18:42:26.081Z,102507.25
2023-05-02T18:44:53.423Z,102501.06
2023-05-02T18:47:20.691Z,102506.69
2023-05-02T18:49:48.232Z,102507.22
2023-05-02T18:52:15.120Z,102501.59
2023-05-02T18:54:42.243Z,102506.34
2023-05-02T18:57:09.123Z,102508.63
2023-05-02T18:59:36.280Z,102514.25
2023-05-02T19:02:03.287Z,102516.47
2023-05-02T19:04:32.631Z,102514.75
2023-05-02T19:06:59.709Z,102519.53
2023-05-02T19:09:26.748Z,102513.38
2023-05-02T19:11:55.428Z,102517.88
2023-05-02T19:14:22.399Z,102521.78
2023-05-02T19:16:50.305Z,102526.56
2023-05-02T19:19:18.613Z,102528.78
2023-05-02T19:21:46.479Z,102536.06
2023-05-02T19:24:13.511Z,102527.38
2023-05-02T19:26:40.476Z,102531.56
2023-05-02T19:29:07.524Z,102538.59
2023-05-02T19:31:34.903Z,102533.81
2023-05-02T19:34:04.103Z,102536.88
2023-05-02T19:36:31.657Z,102539.16
2023-05-02T19:38:58.664Z,102552.06
2023-05-02T19:41:26.168Z,102550.38
2023-05-02T19:43:53.432Z,102544.75
2023-05-02T19:46:21.240Z,102545.88
2023-05-02T19:48:48.778Z,102546.13
2023-05-02T19:51:15.845Z,102548.38
2023-05-02T19:53:42.796Z,102547.25
2023-05-02T19:56:09.834Z,102553.16
2023-05-02T19:58:36.931Z,102550.91
2023-05-02T20:01:03.885Z,102557.06
2023-05-02T20:03:31.407Z,102571.13
2023-05-02T20:05:58.857Z,102569.72
2023-05-02T20:08:28.287Z,102564.09
2023-05-02T20:10:55.797Z,102575.03
2023-05-02T20:13:22.731Z,102580.09
2023-05-02T20:15:50.882Z,102574.78
2023-05-02T20:18:18.098Z,102579.56
2023-05-02T20:20:45.197Z,102579.28
2023-05-02T20:23:12.670Z,102580.09
2023-05-02T20:25:40.568Z,102586.84
2023-05-02T20:28:09.456Z,102595.25
2023-05-02T20:30:36.386Z,102596.63
2023-05-02T20:33:13.975Z,102603.69
2023-05-02T20:35:42.894Z,102610.66
2023-05-02T20:38:13.327Z,102611.53
2023-05-02T20:40:41.031Z,102615.19
2023-05-02T20:43:08.151Z,102621.34
2023-05-02T20:45:35.120Z,102632.34
2023-05-02T20:48:04.768Z,102626.13
2023-05-02T20:50:31.729Z,102626.13
2023-05-02T20:52:58.557Z,102612.06
2023-05-02T20:55:25.722Z,102612.34
2023-05-02T20:57:53.757Z,102614.31
2023-05-02T21:00:23.037Z,102622.75
2023-05-02T21:02:50.127Z,102614.56
2023-05-02T21:05:17.257Z,102618.50
2023-05-02T21:07:45.135Z,102605.25
2023-05-02T21:10:12.214Z,102604.69
2023-05-02T21:12:39.076Z,102612.84
2023-05-02T21:15:06.611Z,102603.84
2023-05-02T21:17:33.598Z,102604.16
2023-05-02T21:20:03.082Z,102610.31
2023-05-02T21:22:30.230Z,102607.50
2023-05-02T21:24:57.088Z,102601.59
2023-05-02T21:27:24.139Z,102603.25
2023-05-02T21:29:51.346Z,102600.19
2023-05-02T21:32:18.214Z,102594.56
2023-05-02T21:34:45.003Z,102600.72
2023-05-02T21:37:11.907Z,102587.75
2023-05-02T21:39:38.958Z,102585.22
2023-05-02T21:42:05.881Z,102587.16
2023-05-02T21:44:32.826Z,102580.19
2023-05-02T21:46:59.654Z,102583.34
2023-05-02T21:49:26.636Z,102579.19
2023-05-02T21:51:53.548Z,102577.56
2023-05-02T21:54:20.429Z,102578.16
2023-05-02T21:56:47.289Z,102579.88
2023-05-02T21:59:14.105Z,102575.72
2023-05-02T22:01:41.028Z,102572.94
2023-05-02T22:04:07.826Z,102571.84
2023-05-02T22:06:34.762Z,102584.84
2023-05-02T22:09:01.808Z,102576.16
2023-05-02T22:11:28.904Z,102577.03
2023-05-02T22:13:55.699Z,102575.38
2023-05-02T22:16:22.651Z,102577.66
2023-05-02T22:18:50.309Z,102566.41
2023-05-02T22:21:17.437Z,102575.47
2023-05-02T22:23:45.694Z,102576.59
2023-05-02T22:26:12.556Z,102583.09
2023-05-02T22:28:39.593Z,102588.19
2023-05-02T22:31:06.489Z,102584.53
2023-05-02T22:33:33.557Z,102578.06
2023-05-02T22:36:00.398Z,102581.47
2023-05-02T22:38:27.326Z,102581.25
2023-05-02T22:40:54.146Z,102577.28
2023-05-02T22:43:21.078Z,102571.66
2023-05-02T22:45:49.598Z,102572.53
2023-05-02T22:48:16.443Z,102564.09
2023-05-02T22:50:46.698Z,102565.22
2023-05-02T22:53:13.639Z,102564.38
2023-05-02T22:55:40.519Z,102563.53
2023-05-02T22:58:07.372Z,102565.50
2023-05-02T23:00:34.281Z,102567.75
2023-05-02T23:03:01.353Z,102577.34
2023-05-02T23:05:29.644Z,102578.75
2023-05-02T23:07:56.493Z,102579.03
2023-05-02T23:10:23.399Z,102575.09
2023-05-02T23:12:50.432Z,102570.03
2023-05-02T23:15:18.480Z,102573.38
2023-05-02T23:17:45.421Z,102572.81
2023-05-02T23:20:12.539Z,102576.47
2023-05-02T23:22:44.463Z,102572.28
2023-05-02T23:25:11.875Z,102576.78
2023-05-02T23:27:38.693Z,102578.75
2023-05-02T23:30:06.016Z,102580.41
2023-05-02T23:32:33.013Z,102592.53
2023-05-02T23:35:00.974Z,102590.28
2023-05-02T23:37:28.539Z,102584.94
2023-05-02T23:39:55.476Z,102588.59
2023-05-02T23:42:22.340Z,102589.72
2023-05-02T23:44:50.109Z,102594.22
2023-05-02T23:47:17.110Z,102599.03
2023-05-02T23:49:43.927Z,102599.88
2023-05-02T23:52:11.146Z,102591.41
2023-05-02T23:54:37.946Z,102593.13
2023-05-02T23:57:04.841Z,102593.13
2023-05-02T23:59:31.632Z,102595.34
